Time;durP1;ratioP1;P1;durP2;ratioP2;P2;SDS_P1;SDS_P2;PMS_P1;PMS_P2;Temp;Humidity;BMP_temperature;BMP_pressure;BME280_temperature;BME280_humidity;BME280_pressure;Samples;Min_cycle;Max_cycle;Signal;HPM_P1;HPM_P2
2022/04/04 00:01:07;;;;;;;9.55;4.30;;;;;;;;;;5066878;28;20051;-65
2022/04/04 00:03:49;;;;;;;8.63;4.30;;;;;;;;;;5067062;28;20049;-65
2022/04/04 00:06:29;;;;;;;6.18;4.22;;;;;;;;;;5066502;28;20051;-65
2022/04/04 00:09:01;;;;;;;8.15;3.78;;;;;;;;;;5067345;28;20072;-65
2022/04/04 00:11:27;;;;;;;7.30;3.95;;;;;;;;;;5067483;28;20039;-65
2022/04/04 00:13:53;;;;;;;6.82;4.25;;;;;;;;;;5065903;28;20044;-65
2022/04/04 00:16:25;;;;;;;6.00;3.90;;;;;;;;;;5067254;28;20052;-65
2022/04/04 00:18:54;;;;;;;7.55;4.22;;;;;;;;;;5071284;28;20041;-65
2022/04/04 00:21:31;;;;;;;8.85;3.78;;;;;;;;;;5070921;28;20097;-65
2022/04/04 00:24:09;;;;;;;10.05;4.25;;;;;;;;;;5070508;28;20040;-65
2022/04/04 00:26:38;;;;;;;6.93;3.65;;;;;;;;;;5035877;28;20032;-65
2022/04/04 00:29:10;;;;;;;5.18;3.88;;;;;;;;;;5070713;28;20028;-65
2022/04/04 00:31:48;;;;;;;7.43;4.05;;;;;;;;;;5070540;28;20085;-65
2022/04/04 00:34:20;;;;;;;7.35;4.20;;;;;;;;;;5051893;28;20051;-65
2022/04/04 00:36:49;;;;;;;6.55;4.00;;;;;;;;;;5070672;28;20086;-65
2022/04/04 00:39:16;;;;;;;8.55;4.60;;;;;;;;;;5071043;28;20041;-65
2022/04/04 00:41:45;;;;;;;7.78;4.35;;;;;;;;;;5070856;28;20051;-66
2022/04/04 00:44:11;;;;;;;8.38;5.05;;;;;;;;;;5070637;28;20037;-65
2022/04/04 00:46:40;;;;;;;9.60;5.90;;;;;;;;;;5068500;28;20118;-65
2022/04/04 00:49:14;;;;;;;7.60;5.03;;;;;;;;;;5069364;28;20123;-65
2022/04/04 00:51:50;;;;;;;8.65;5.88;;;;;;;;;;5070338;28;20059;-65
2022/04/04 00:54:16;;;;;;;10.02;5.85;;;;;;;;;;5070928;28;20072;-65
2022/04/04 00:56:43;;;;;;;10.43;6.72;;;;;;;;;;5070574;28;20555;-65
2022/04/04 00:59:20;;;;;;;11.38;7.60;;;;;;;;;;5069855;28;20047;-65
2022/04/04 01:01:56;;;;;;;9.20;7.15;;;;;;;;;;5068968;28;20049;-65
2022/04/04 01:04:30;;;;;;;10.60;7.50;;;;;;;;;;5069050;28;20033;-65
2022/04/04 01:07:05;;;;;;;11.38;7.50;;;;;;;;;;5069474;28;20041;-65
2022/04/04 01:09:32;;;;;;;12.35;7.75;;;;;;;;;;5070088;28;20035;-65
2022/04/04 01:12:11;;;;;;;12.30;7.65;;;;;;;;;;5070137;28;20032;-65
2022/04/04 01:14:41;;;;;;;12.48;7.82;;;;;;;;;;5068817;28;20618;-65
2022/04/04 01:17:11;;;;;;;10.18;7.30;;;;;;;;;;5069360;28;20056;-65
2022/04/04 01:19:37;;;;;;;14.18;8.65;;;;;;;;;;5070349;28;20048;-65
2022/04/04 01:22:07;;;;;;;11.27;7.63;;;;;;;;;;5069715;28;20043;-65
2022/04/04 01:24:33;;;;;;;10.85;7.82;;;;;;;;;;5069536;28;20032;-65
2022/04/04 01:26:59;;;;;;;13.00;7.93;;;;;;;;;;5070029;28;20040;-66
2022/04/04 01:29:28;;;;;;;9.45;6.82;;;;;;;;;;5050359;28;20037;-66
2022/04/04 01:31:57;;;;;;;11.80;7.20;;;;;;;;;;5068155;28;20120;-65
2022/04/04 01:34:30;;;;;;;11.82;7.50;;;;;;;;;;5069022;28;20036;-65
2022/04/04 01:37:08;;;;;;;10.15;7.13;;;;;;;;;;5069260;28;20052;-65
2022/04/04 01:39:36;;;;;;;12.52;7.00;;;;;;;;;;5068616;28;20070;-65
2022/04/04 01:42:09;;;;;;;8.45;6.65;;;;;;;;;;5051386;28;20040;-65
2022/04/04 01:44:38;;;;;;;9.38;6.43;;;;;;;;;;5068335;28;20040;-65
2022/04/04 01:47:05;;;;;;;11.20;7.22;;;;;;;;;;5068717;28;20047;-65
2022/04/04 01:49:34;;;;;;;9.20;6.90;;;;;;;;;;5052021;28;20048;-65
2022/04/04 01:52:00;;;;;;;9.88;7.65;;;;;;;;;;5069134;28;20036;-65
2022/04/04 01:54:26;;;;;;;11.55;7.78;;;;;;;;;;5050864;28;20036;-66
2022/04/04 01:56:52;;;;;;;10.40;7.80;;;;;;;;;;5068620;28;20040;-65
2022/04/04 01:59:28;;;;;;;11.40;7.55;;;;;;;;;;5068900;28;20119;-65
2022/04/04 02:02:02;;;;;;;16.75;8.35;;;;;;;;;;5050161;28;20036;-65
2022/04/04 02:04:31;;;;;;;12.27;8.38;;;;;;;;;;5068911;28;20044;-65
2022/04/04 02:07:01;;;;;;;11.98;7.75;;;;;;;;;;5068479;28;20028;-65
2022/04/04 02:09:30;;;;;;;14.32;8.77;;;;;;;;;;5068686;28;20036;-65
2022/04/04 02:11:56;;;;;;;12.23;8.70;;;;;;;;;;5068850;28;20041;-65
2022/04/04 02:17:23;;;;;;;18.70;10.23;;;;;;;;;;5061191;28;20063;-66
2022/04/04 02:19:52;;;;;;;14.40;9.98;;;;;;;;;;5067183;28;20049;-65
2022/04/04 02:22:21;;;;;;;17.35;9.90;;;;;;;;;;5063053;28;20098;-65
2022/04/04 02:25:08;;;;;;;14.32;10.02;;;;;;;;;;5068524;28;20032;-65
2022/04/04 02:27:34;;;;;;;;;;;;;;;;;;5068467;28;20032;-65
2022/04/04 02:30:00;;;;;;;14.68;9.25;;;;;;;;;;5068464;28;19927;-65
2022/04/04 02:32:32;;;;;;;14.00;10.18;;;;;;;;;;5068352;28;20080;-65
2022/04/04 02:35:04;;;;;;;16.83;10.30;;;;;;;;;;5067700;28;20045;-65
2022/04/04 02:37:31;;;;;;;16.27;10.65;;;;;;;;;;5068360;28;20044;-65
2022/04/04 02:39:57;;;;;;;17.20;9.15;;;;;;;;;;5068919;28;20044;-65
2022/04/04 02:42:23;;;;;;;17.73;10.93;;;;;;;;;;5067544;28;20477;-65
2022/04/04 02:44:50;;;;;;;14.75;9.95;;;;;;;;;;5051001;28;20029;-65
2022/04/04 02:47:46;;;;;;;15.38;10.68;;;;;;;;;;5068556;28;20094;-65
2022/04/04 02:50:16;;;;;;;16.25;10.38;;;;;;;;;;5068781;28;20045;-65
2022/04/04 02:52:45;;;;;;;18.13;10.05;;;;;;;;;;5068314;28;20032;-65
2022/04/04 02:58:11;;;;;;;15.02;9.52;;;;;;;;;;5067930;28;20053;-65
2022/04/04 03:00:37;;;;;;;20.17;10.55;;;;;;;;;;5068087;28;20048;-65
2022/04/04 03:03:06;;;;;;;16.65;11.07;;;;;;;;;;5068843;28;20127;-65
2022/04/04 03:05:35;;;;;;;15.90;10.98;;;;;;;;;;5068154;28;20037;-65
2022/04/04 03:08:01;;;;;;;14.57;10.38;;;;;;;;;;5067726;28;20028;-65
2022/04/04 03:10:33;;;;;;;14.07;9.93;;;;;;;;;;5068362;28;20543;-65
2022/04/04 03:13:05;;;;;;;15.57;10.00;;;;;;;;;;5050981;28;20032;-65
2022/04/04 03:15:34;;;;;;;18.75;11.30;;;;;;;;;;5068086;28;20101;-65
2022/04/04 03:18:04;;;;;;;18.13;10.48;;;;;;;;;;5050071;28;20056;-65
2022/04/04 03:20:31;;;;;;;14.73;10.35;;;;;;;;;;5067523;28;20036;-65
2022/04/04 03:23:00;;;;;;;16.35;9.57;;;;;;;;;;5068160;28;20051;-65
2022/04/04 03:25:38;;;;;;;15.02;10.20;;;;;;;;;;5068326;28;20032;-65
2022/04/04 03:28:05;;;;;;;16.08;9.40;;;;;;;;;;5067619;28;20071;-65
2022/04/04 03:30:37;;;;;;;14.20;9.60;;;;;;;;;;5067579;28;20075;-65
2022/04/04 03:33:06;;;;;;;13.63;9.48;;;;;;;;;;5067568;28;20116;-65
2022/04/04 03:35:38;;;;;;;13.32;8.93;;;;;;;;;;5067146;28;20040;-65
2022/04/04 03:38:04;;;;;;;15.80;9.38;;;;;;;;;;5067075;28;20540;-67
2022/04/04 03:40:34;;;;;;;13.18;9.20;;;;;;;;;;5067141;28;20048;-65
2022/04/04 03:43:03;;;;;;;18.95;10.20;;;;;;;;;;5049296;28;20037;-65
2022/04/04 03:45:29;;;;;;;15.93;9.77;;;;;;;;;;5066128;28;20123;-65
2022/04/04 03:48:01;;;;;;;15.10;9.38;;;;;;;;;;5048771;28;20043;-65
2022/04/04 03:50:47;;;;;;;11.65;7.93;;;;;;;;;;5048896;28;20040;-65
2022/04/04 03:53:13;;;;;;;14.18;9.18;;;;;;;;;;5071605;28;20109;-65
2022/04/04 03:55:43;;;;;;;18.05;9.60;;;;;;;;;;5072015;28;20048;-66
2022/04/04 03:58:11;;;;;;;17.02;8.95;;;;;;;;;;5071796;28;20115;-65
2022/04/04 04:00:45;;;;;;;13.82;9.98;;;;;;;;;;5070257;28;20087;-65
2022/04/04 04:03:11;;;;;;;14.20;9.57;;;;;;;;;;5071267;28;20370;-65
2022/04/04 04:05:38;;;;;;;14.27;9.25;;;;;;;;;;5067343;28;20044;-65
2022/04/04 04:08:04;;;;;;;16.75;10.15;;;;;;;;;;5071352;28;20075;-65
2022/04/04 04:10:41;;;;;;;14.05;9.77;;;;;;;;;;5070314;28;20733;-65
2022/04/04 04:13:20;;;;;;;14.05;8.75;;;;;;;;;;5069870;28;20131;-65
2022/04/04 04:15:55;;;;;;;14.55;9.73;;;;;;;;;;5071037;28;20473;-65
2022/04/04 04:18:21;;;;;;;14.60;9.60;;;;;;;;;;5070494;28;20503;-65
2022/04/04 04:20:56;;;;;;;15.20;9.82;;;;;;;;;;5071563;28;20050;-65
2022/04/04 04:23:29;;;;;;;12.55;8.90;;;;;;;;;;5071016;28;20083;-65
2022/04/04 04:26:12;;;;;;;18.38;9.93;;;;;;;;;;5071587;28;20489;-65
2022/04/04 04:28:39;;;;;;;18.35;10.45;;;;;;;;;;5069834;28;20055;-65
2022/04/04 04:31:06;;;;;;;14.60;9.88;;;;;;;;;;5069731;28;20032;-65
2022/04/04 04:33:42;;;;;;;13.55;10.02;;;;;;;;;;5069553;28;20411;-65
2022/04/04 04:36:18;;;;;;;17.85;10.63;;;;;;;;;;5069836;28;20122;-65
2022/04/04 04:38:44;;;;;;;17.10;10.40;;;;;;;;;;5070208;28;20123;-65
2022/04/04 04:41:15;;;;;;;13.52;8.07;;;;;;;;;;5069826;28;20480;-65
2022/04/04 04:43:47;;;;;;;16.27;9.95;;;;;;;;;;5068769;28;20097;-65
2022/04/04 04:46:16;;;;;;;15.13;10.48;;;;;;;;;;5067921;28;20048;-65
2022/04/04 04:48:44;;;;;;;14.43;10.40;;;;;;;;;;5052137;28;20036;-65
2022/04/04 04:51:26;;;;;;;15.50;9.95;;;;;;;;;;5070338;28;20059;-65
2022/04/04 04:54:00;;;;;;;15.95;11.38;;;;;;;;;;5069763;28;20040;-65
2022/04/04 04:56:32;;;;;;;17.55;10.65;;;;;;;;;;5070195;28;20052;-65
2022/04/04 04:59:01;;;;;;;15.68;10.55;;;;;;;;;;5069146;28;20490;-65
2022/04/04 05:01:30;;;;;;;16.55;11.18;;;;;;;;;;5069800;28;20119;-66
2022/04/04 05:04:07;;;;;;;17.55;10.98;;;;;;;;;;5069249;28;20035;-65
2022/04/04 05:06:40;;;;;;;17.20;10.77;;;;;;;;;;5068910;28;20112;-66
2022/04/04 05:09:12;;;;;;;15.77;10.02;;;;;;;;;;5067913;28;20127;-66
2022/04/04 05:11:38;;;;;;;15.80;10.18;;;;;;;;;;5068321;28;20067;-66
2022/04/04 05:14:06;;;;;;;16.48;10.30;;;;;;;;;;5069913;28;20033;-65
2022/04/04 05:16:37;;;;;;;12.68;9.52;;;;;;;;;;5052064;28;20053;-65
2022/04/04 05:19:04;;;;;;;17.88;10.30;;;;;;;;;;5069276;28;20044;-65
2022/04/04 05:21:30;;;;;;;15.98;9.63;;;;;;;;;;5068873;28;20071;-65
2022/04/04 05:23:56;;;;;;;17.30;10.13;;;;;;;;;;5067699;28;20056;-65
2022/04/04 05:26:22;;;;;;;13.32;9.13;;;;;;;;;;5035189;28;20061;-65
2022/04/04 05:28:48;;;;;;;14.43;9.18;;;;;;;;;;5068270;28;20028;-65
2022/04/04 05:31:21;;;;;;;14.30;9.18;;;;;;;;;;5068806;28;20032;-65
2022/04/04 05:33:49;;;;;;;15.57;9.88;;;;;;;;;;5066509;28;20048;-65
2022/04/04 05:36:20;;;;;;;19.13;9.60;;;;;;;;;;5068007;28;20051;-65
2022/04/04 05:38:52;;;;;;;14.18;9.75;;;;;;;;;;5067702;28;20150;-65
2022/04/04 05:41:21;;;;;;;12.02;8.52;;;;;;;;;;5069385;28;20066;-65
2022/04/04 05:43:50;;;;;;;13.70;8.50;;;;;;;;;;5069653;28;20051;-65
2022/04/04 05:46:22;;;;;;;18.55;9.13;;;;;;;;;;5068310;28;20163;-65
2022/04/04 05:48:49;;;;;;;12.70;8.40;;;;;;;;;;5068315;28;20124;-65
2022/04/04 05:51:16;;;;;;;11.50;7.75;;;;;;;;;;5068605;28;20028;-65
2022/04/04 05:53:55;;;;;;;11.55;8.35;;;;;;;;;;5068231;28;20044;-65
2022/04/04 05:56:29;;;;;;;12.88;8.13;;;;;;;;;;5064762;28;20654;-65
2022/04/04 05:58:58;;;;;;;12.20;8.85;;;;;;;;;;5068526;28;20040;-65
2022/04/04 06:01:29;;;;;;;14.30;8.65;;;;;;;;;;5068110;28;20036;-66
2022/04/04 06:04:00;;;;;;;13.20;8.23;;;;;;;;;;5068705;28;20044;-66
2022/04/04 06:06:26;;;;;;;12.40;8.20;;;;;;;;;;5067944;28;20051;-65
2022/04/04 06:08:59;;;;;;;12.30;8.48;;;;;;;;;;5068273;28;20399;-65
2022/04/04 06:11:28;;;;;;;14.77;8.30;;;;;;;;;;5067070;28;20047;-65
2022/04/04 06:13:57;;;;;;;14.52;8.52;;;;;;;;;;5050653;28;20492;-65
2022/04/04 06:16:36;;;;;;;14.10;8.60;;;;;;;;;;5067248;28;20497;-65
2022/04/04 06:19:11;;;;;;;15.30;9.00;;;;;;;;;;5064270;28;20041;-65
2022/04/04 06:21:38;;;;;;;11.45;7.82;;;;;;;;;;5067337;28;20481;-65
2022/04/04 06:24:07;;;;;;;15.85;8.82;;;;;;;;;;5068700;28;20033;-66
2022/04/04 06:26:50;;;;;;;15.77;8.88;;;;;;;;;;5068122;28;20526;-66
2022/04/04 06:29:20;;;;;;;14.43;9.05;;;;;;;;;;5068559;28;20029;-66
2022/04/04 06:31:51;;;;;;;14.55;8.02;;;;;;;;;;5068006;28;20040;-66
2022/04/04 06:34:24;;;;;;;12.88;8.10;;;;;;;;;;5067775;28;20062;-65
2022/04/04 06:37:00;;;;;;;15.35;8.63;;;;;;;;;;5065864;28;20054;-65
2022/04/04 06:39:29;;;;;;;16.15;9.45;;;;;;;;;;5051009;28;20048;-65
2022/04/04 06:41:59;;;;;;;14.10;9.07;;;;;;;;;;5049124;28;20052;-65
2022/04/04 06:44:32;;;;;;;14.18;9.23;;;;;;;;;;5068221;28;20037;-65
2022/04/04 06:47:07;;;;;;;14.52;8.73;;;;;;;;;;5067355;28;20044;-65
2022/04/04 06:50:07;;;;;;;14.95;8.90;;;;;;;;;;5068372;28;20039;-66
2022/04/04 06:52:37;;;;;;;16.58;8.88;;;;;;;;;;5065622;28;20047;-66
2022/04/04 06:55:08;;;;;;;15.75;9.85;;;;;;;;;;5067742;28;20033;-66
2022/04/04 06:57:37;;;;;;;14.30;9.30;;;;;;;;;;5066695;28;20051;-66
2022/04/04 07:00:08;;;;;;;13.48;8.60;;;;;;;;;;5047316;28;20044;-66
2022/04/04 07:02:36;;;;;;;16.45;9.50;;;;;;;;;;5065289;28;20055;-66
2022/04/04 07:05:06;;;;;;;13.23;9.00;;;;;;;;;;5065460;28;21447;-66
2022/04/04 07:07:43;;;;;;;12.80;8.85;;;;;;;;;;5065236;28;20048;-65
2022/04/04 07:10:16;;;;;;;13.25;10.02;;;;;;;;;;5065537;28;20062;-65
2022/04/04 07:12:43;;;;;;;16.10;10.50;;;;;;;;;;5064974;28;20063;-66
2022/04/04 07:15:12;;;;;;;17.48;10.75;;;;;;;;;;5048495;28;20163;-65
2022/04/04 07:17:41;;;;;;;15.20;10.75;;;;;;;;;;5063401;28;20072;-65
2022/04/04 07:20:19;;;;;;;15.35;11.48;;;;;;;;;;5066571;28;20048;-65
2022/04/04 07:22:55;;;;;;;16.13;10.80;;;;;;;;;;5065226;28;20048;-65
2022/04/04 07:25:24;;;;;;;19.55;12.40;;;;;;;;;;5065800;28;20038;-65
2022/04/04 07:27:51;;;;;;;16.67;11.32;;;;;;;;;;5067656;28;20044;-65
2022/04/04 07:30:23;;;;;;;12.63;9.60;;;;;;;;;;5070182;28;20077;-65
2022/04/04 07:33:01;;;;;;;18.00;12.25;;;;;;;;;;5070162;28;20056;-65
2022/04/04 07:35:31;;;;;;;16.80;11.30;;;;;;;;;;5068320;28;20068;-65
2022/04/04 07:37:57;;;;;;;18.85;11.40;;;;;;;;;;5069416;28;20037;-65
2022/04/04 07:40:30;;;;;;;17.42;11.52;;;;;;;;;;5068596;28;20049;-65
2022/04/04 07:42:56;;;;;;;13.25;11.15;;;;;;;;;;5064077;28;20174;-65
2022/04/04 07:45:27;;;;;;;16.15;12.70;;;;;;;;;;5069222;28;20058;-66
2022/04/04 07:48:00;;;;;;;19.55;12.73;;;;;;;;;;5051719;28;20105;-65
2022/04/04 07:50:30;;;;;;;18.55;13.25;;;;;;;;;;5068392;28;20037;-65
2022/04/04 07:52:59;;;;;;;18.08;13.23;;;;;;;;;;5068681;28;20055;-65
2022/04/04 07:55:37;;;;;;;16.77;13.23;;;;;;;;;;5066505;28;20032;-66
2022/04/04 07:58:06;;;;;;;16.80;12.45;;;;;;;;;;5064379;28;20047;-66
2022/04/04 08:00:38;;;;;;;16.73;11.45;;;;;;;;;;5068682;28;20085;-66
2022/04/04 08:03:15;;;;;;;18.50;11.07;;;;;;;;;;5065077;28;20477;-65
2022/04/04 08:05:50;;;;;;;16.10;11.25;;;;;;;;;;5067005;28;20047;-65
2022/04/04 08:08:29;;;;;;;13.63;10.25;;;;;;;;;;5068128;28;20028;-65
2022/04/04 08:10:58;;;;;;;15.43;9.68;;;;;;;;;;5069285;28;20043;-65
2022/04/04 08:13:37;;;;;;;13.13;9.75;;;;;;;;;;5065581;28;20386;-66
2022/04/04 08:16:10;;;;;;;15.85;10.05;;;;;;;;;;5067792;28;20460;-65
2022/04/04 08:18:38;;;;;;;16.52;9.85;;;;;;;;;;5065753;28;20045;-66
2022/04/04 08:21:23;;;;;;;16.35;9.75;;;;;;;;;;5067546;28;20384;-65
2022/04/04 08:24:05;;;;;;;15.02;10.18;;;;;;;;;;5068857;28;20393;-65
2022/04/04 08:26:44;;;;;;;14.73;9.88;;;;;;;;;;5068833;28;20408;-65
2022/04/04 08:29:10;;;;;;;18.13;10.02;;;;;;;;;;5069605;28;20369;-65
2022/04/04 08:31:42;;;;;;;13.65;9.77;;;;;;;;;;5068151;28;20476;-66
2022/04/04 08:34:12;;;;;;;14.40;9.45;;;;;;;;;;5068357;28;20090;-65
2022/04/04 08:36:46;;;;;;;15.95;10.05;;;;;;;;;;5068632;28;20049;-65
2022/04/04 08:39:18;;;;;;;13.82;9.18;;;;;;;;;;5051150;28;20044;-67
2022/04/04 08:42:07;;;;;;;12.30;7.53;;;;;;;;;;5051757;28;20039;-68
2022/04/04 08:44:56;;;;;;;9.93;7.30;;;;;;;;;;5050475;28;20507;-68
2022/04/04 08:47:25;;;;;;;11.73;7.57;;;;;;;;;;5050318;28;20189;-68
2022/04/04 08:50:15;;;;;;;12.57;6.63;;;;;;;;;;5049953;28;20040;-68
2022/04/04 08:53:02;;;;;;;12.13;6.25;;;;;;;;;;5051425;28;20048;-68
2022/04/04 08:56:11;;;;;;;9.73;6.65;;;;;;;;;;5051980;28;20048;-68
2022/04/04 08:58:41;;;;;;;9.45;5.53;;;;;;;;;;5051444;28;20078;-68
2022/04/04 09:01:14;;;;;;;9.50;5.00;;;;;;;;;;5051713;28;20048;-68
2022/04/04 09:04:03;;;;;;;;;;;;;;;;;;;;;
2022/04/04 09:06:56;;;;;;;8.45;4.05;;;;;;;;;;5052048;28;20032;-68
2022/04/04 09:10:01;;;;;;;4.97;3.30;;;;;;;;;;5039003;28;20045;-68
2022/04/04 09:12:44;;;;;;;5.70;3.50;;;;;;;;;;5050098;28;20044;-69
2022/04/04 09:15:36;;;;;;;7.60;3.55;;;;;;;;;;5068199;28;20119;-69
2022/04/04 09:18:40;;;;;;;8.95;3.72;;;;;;;;;;5040894;28;20182;-68
2022/04/04 09:21:29;;;;;;;;;;;;;;;;;;5048397;28;20096;-68
2022/04/04 09:24:36;;;;;;;9.68;4.85;;;;;;;;;;5043138;28;20331;-68
2022/04/04 09:27:25;;;;;;;6.63;4.55;;;;;;;;;;5032125;28;20094;-68
2022/04/04 09:33:21;;;;;;;6.93;3.55;;;;;;;;;;5026887;28;20041;-68
2022/04/04 09:35:52;;;;;;;5.68;4.20;;;;;;;;;;5010300;28;20107;-68
2022/04/04 09:38:27;;;;;;;9.32;3.85;;;;;;;;;;5008872;28;20053;-68
2022/04/04 09:44:13;;;;;;;6.63;3.85;;;;;;;;;;5006302;28;20048;-68
2022/04/04 09:46:59;;;;;;;8.10;4.43;;;;;;;;;;5010440;28;20758;-69
2022/04/04 09:49:36;;;;;;;;;;;;;;;;;;5026735;28;20041;-69
2022/04/04 09:52:57;;;;;;;4.80;3.72;;;;;;;;;;5027346;28;19975;-69
2022/04/04 09:55:40;;;;;;;5.85;3.83;;;;;;;;;;4981790;28;20045;-69
2022/04/04 09:58:26;;;;;;;6.50;3.50;;;;;;;;;;5008583;28;20057;-69
2022/04/04 10:01:06;;;;;;;5.75;3.53;;;;;;;;;;5010486;28;20132;-69
2022/04/04 10:03:55;;;;;;;6.72;3.95;;;;;;;;;;5009667;28;20057;-69
2022/04/04 10:06:29;;;;;;;6.82;4.00;;;;;;;;;;5016877;28;20136;-69
2022/04/04 10:09:03;;;;;;;4.72;3.25;;;;;;;;;;5009802;28;20140;-70
2022/04/04 10:11:38;;;;;;;4.88;3.15;;;;;;;;;;5044502;28;20045;-69
2022/04/04 10:14:06;;;;;;;5.15;3.80;;;;;;;;;;5034875;28;20098;-68
2022/04/04 10:20:00;;;;;;;6.18;3.58;;;;;;;;;;4969861;28;20082;-69
2022/04/04 10:23:04;;;;;;;5.72;3.75;;;;;;;;;;5009021;28;20103;-68
2022/04/04 10:25:32;;;;;;;6.82;3.88;;;;;;;;;;5047558;28;20392;-69
2022/04/04 10:28:07;;;;;;;5.93;3.80;;;;;;;;;;5046278;28;20120;-69
2022/04/04 10:30:42;;;;;;;10.65;4.38;;;;;;;;;;5045594;28;20408;-68
2022/04/04 10:37:01;;;;;;;9.18;3.80;;;;;;;;;;4943545;28;20278;-69
2022/04/04 10:42:33;;;;;;;6.10;2.83;;;;;;;;;;4951025;28;19976;-69
2022/04/04 10:45:15;;;;;;;8.10;4.30;;;;;;;;;;4966929;28;20131;-68
2022/04/04 10:47:47;;;;;;;6.15;4.00;;;;;;;;;;4966910;28;20419;-69
2022/04/04 10:54:03;;;;;;;5.75;3.10;;;;;;;;;;5027266;28;20045;-69
2022/04/04 11:00:07;;;;;;;7.22;3.33;;;;;;;;;;4952602;28;20089;-69
2022/04/04 11:12:15;;;;;;;7.20;3.40;;;;;;;;;;4964574;28;20458;-68
2022/04/04 11:14:58;;;;;;;5.45;3.13;;;;;;;;;;5040380;28;20087;-68
2022/04/04 11:17:36;;;;;;;;;;;;;;;;;;5049748;28;20056;-68
2022/04/04 11:20:21;;;;;;;5.97;2.72;;;;;;;;;;5063865;28;19921;-68
2022/04/04 11:23:14;;;;;;;5.50;2.67;;;;;;;;;;5049096;28;20078;-68
2022/04/04 11:26:08;;;;;;;4.35;2.35;;;;;;;;;;5049610;28;20103;-68
2022/04/04 11:31:41;;;;;;;5.00;2.42;;;;;;;;;;5048445;28;20043;-68
2022/04/04 11:34:31;;;;;;;4.50;2.30;;;;;;;;;;5065540;28;20151;-68
2022/04/04 11:37:00;;;;;;;5.60;2.42;;;;;;;;;;4949906;28;20541;-69
2022/04/04 11:42:51;;;;;;;5.75;2.30;;;;;;;;;;5038657;28;20056;-69
2022/04/04 11:45:36;;;;;;;5.20;2.50;;;;;;;;;;5049623;28;20182;-68
2022/04/04 11:48:28;;;;;;;3.83;2.60;;;;;;;;;;5048590;28;20071;-68
2022/04/04 11:51:10;;;;;;;3.15;2.25;;;;;;;;;;5032259;28;20048;-69
2022/04/04 11:53:55;;;;;;;4.20;2.63;;;;;;;;;;5047915;28;20051;-68
2022/04/04 11:56:47;;;;;;;3.58;2.35;;;;;;;;;;5065935;28;20052;-68
2022/04/04 12:00:04;;;;;;;4.65;2.17;;;;;;;;;;5055164;28;20052;-68
2022/04/04 12:05:24;;;;;;;5.35;2.00;;;;;;;;;;5065743;28;20138;-68
2022/04/04 12:07:51;;;;;;;4.07;2.22;;;;;;;;;;5046540;28;20052;-68
2022/04/04 12:10:31;;;;;;;3.50;1.63;;;;;;;;;;5047908;28;20484;-69
2022/04/04 12:13:22;;;;;;;3.38;2.33;;;;;;;;;;5050331;28;20393;-69
2022/04/04 12:16:23;;;;;;;4.03;1.90;;;;;;;;;;5051701;28;20040;-68
2022/04/04 12:19:05;;;;;;;2.90;1.80;;;;;;;;;;5045427;28;20060;-69
2022/04/04 12:21:43;;;;;;;3.83;1.90;;;;;;;;;;5046162;28;20497;-70
2022/04/04 12:27:58;;;;;;;3.92;1.83;;;;;;;;;;5046101;28;20037;-68
2022/04/04 12:30:48;;;;;;;3.15;1.50;;;;;;;;;;5011781;28;20052;-69
2022/04/04 12:36:15;;;;;;;2.80;1.98;;;;;;;;;;5028949;28;20053;-69
2022/04/04 12:38:44;;;;;;;2.33;1.30;;;;;;;;;;5045701;28;20045;-68
2022/04/04 12:41:44;;;;;;;3.20;1.85;;;;;;;;;;5046879;28;20038;-69
2022/04/04 12:44:21;;;;;;;4.07;1.88;;;;;;;;;;5042914;28;20542;-68
2022/04/04 12:47:25;;;;;;;3.55;1.90;;;;;;;;;;5047185;28;20358;-68
2022/04/04 12:50:19;;;;;;;3.50;2.00;;;;;;;;;;5003901;28;20569;-68
2022/04/04 12:53:45;;;;;;;2.17;1.70;;;;;;;;;;5006065;28;20072;-69
2022/04/04 12:56:16;;;;;;;2.72;1.58;;;;;;;;;;4952461;28;20046;-68
2022/04/04 13:06:01;;;;;;;2.63;1.90;;;;;;;;;;4950595;28;20069;-69
2022/04/04 13:11:20;;;;;;;2.90;1.70;;;;;;;;;;4876436;29;20044;-68
2022/04/04 13:14:05;;;;;;;1.80;1.40;;;;;;;;;;4891028;29;20068;-68
2022/04/04 13:16:37;;;;;;;1.65;1.25;;;;;;;;;;4895443;29;20134;-69
2022/04/04 13:19:14;;;;;;;2.27;1.23;;;;;;;;;;4911075;29;20052;-69
2022/04/04 13:21:59;;;;;;;2.28;1.40;;;;;;;;;;4941818;28;20051;-69
2022/04/04 13:24:33;;;;;;;2.15;1.35;;;;;;;;;;5046414;28;20136;-69
2022/04/04 13:27:08;;;;;;;2.63;1.17;;;;;;;;;;5045588;28;20041;-69
2022/04/04 13:29:40;;;;;;;1.40;1.17;;;;;;;;;;5046659;28;20033;-69
2022/04/04 13:32:11;;;;;;;3.22;1.50;;;;;;;;;;5045933;28;20505;-69
2022/04/04 13:34:46;;;;;;;2.10;1.30;;;;;;;;;;5031560;28;20060;-69
2022/04/04 13:37:33;;;;;;;1.50;1.20;;;;;;;;;;5035041;28;20049;-69
2022/04/04 13:40:10;;;;;;;1.17;1.00;;;;;;;;;;5047919;28;20049;-69
2022/04/04 13:42:48;;;;;;;1.35;1.20;;;;;;;;;;5062168;28;20051;-69
2022/04/04 13:45:18;;;;;;;1.95;1.38;;;;;;;;;;5046371;28;20091;-69
2022/04/04 13:47:57;;;;;;;2.60;1.02;;;;;;;;;;5047927;28;20436;-69
2022/04/04 13:50:31;;;;;;;3.03;1.40;;;;;;;;;;5047889;28;20052;-69
2022/04/04 13:53:06;;;;;;;2.55;1.50;;;;;;;;;;5041749;28;20053;-69
2022/04/04 13:55:38;;;;;;;2.45;1.80;;;;;;;;;;5046220;28;20392;-69
2022/04/04 13:58:16;;;;;;;5.13;1.98;;;;;;;;;;5047073;28;20572;-70
2022/04/04 14:00:53;;;;;;;3.38;2.08;;;;;;;;;;5046276;28;20079;-69
2022/04/04 14:03:31;;;;;;;3.42;2.20;;;;;;;;;;5047200;28;20037;-69
2022/04/04 14:06:06;;;;;;;4.88;2.58;;;;;;;;;;5046462;28;20122;-70
2022/04/04 14:11:35;;;;;;;3.65;2.75;;;;;;;;;;5044736;28;20318;-70
2022/04/04 14:17:21;;;;;;;4.93;3.45;;;;;;;;;;5033067;28;20902;-70
2022/04/04 14:19:55;;;;;;;4.03;3.10;;;;;;;;;;4966516;28;20116;-70
2022/04/04 14:23:28;;;;;;;4.90;3.20;;;;;;;;;;4964875;28;20130;-70
2022/04/04 14:25:45;;;;;;;4.82;4.00;;;;;;;;;;4946732;28;20035;-69
2022/04/04 14:28:34;;;;;;;6.05;4.70;;;;;;;;;;4947737;28;20059;-70
2022/04/04 14:31:30;;;;;;;5.32;4.10;;;;;;;;;;4961880;28;20050;-70
2022/04/04 14:34:31;;;;;;;8.10;5.00;;;;;;;;;;4945558;28;20043;-69
2022/04/04 14:37:11;;;;;;;6.47;5.22;;;;;;;;;;4943991;28;20145;-69
2022/04/04 14:39:45;;;;;;;8.82;6.00;;;;;;;;;;4993402;28;20045;-69
2022/04/04 14:42:27;;;;;;;7.18;5.63;;;;;;;;;;5041153;28;20148;-69
2022/04/04 14:45:13;;;;;;;11.68;6.65;;;;;;;;;;5045847;28;20063;-70
2022/04/04 14:47:45;;;;;;;8.77;5.78;;;;;;;;;;5044826;28;20155;-70
2022/04/04 14:50:25;;;;;;;8.20;4.95;;;;;;;;;;5028251;28;20041;-71
2022/04/04 14:53:15;;;;;;;8.30;5.70;;;;;;;;;;5029754;28;20641;-71
2022/04/04 14:55:50;;;;;;;8.07;5.72;;;;;;;;;;5043460;28;20418;-70
2022/04/04 14:58:24;;;;;;;8.25;5.85;;;;;;;;;;5043325;28;20416;-70
2022/04/04 15:00:52;;;;;;;9.18;5.78;;;;;;;;;;5043576;28;20088;-69
2022/04/04 15:06:22;;;;;;;10.60;6.00;;;;;;;;;;5032471;28;20049;-68
2022/04/04 15:09:00;;;;;;;8.93;5.30;;;;;;;;;;5026512;28;20532;-68
2022/04/04 15:14:44;;;;;;;11.25;5.32;;;;;;;;;;5043541;28;20041;-69
2022/04/04 15:20:00;;;;;;;9.27;5.75;;;;;;;;;;5028650;28;20049;-70
2022/04/04 15:23:01;;;;;;;8.52;5.07;;;;;;;;;;5035452;28;20045;-70
2022/04/04 15:25:47;;;;;;;10.05;5.57;;;;;;;;;;5013150;28;20576;-70
2022/04/04 15:28:36;;;;;;;14.93;6.40;;;;;;;;;;5042652;28;20032;-70
2022/04/04 15:31:32;;;;;;;9.52;6.15;;;;;;;;;;4933163;28;20047;-70
2022/04/04 15:34:28;;;;;;;10.60;5.18;;;;;;;;;;4993165;28;20237;-71
2022/04/04 15:37:03;;;;;;;12.32;6.68;;;;;;;;;;4974661;28;20038;-71
2022/04/04 15:39:37;;;;;;;12.95;6.18;;;;;;;;;;4969755;28;20077;-71
2022/04/04 15:42:11;;;;;;;11.32;6.65;;;;;;;;;;4984943;28;20045;-71
2022/04/04 15:45:12;;;;;;;10.27;5.45;;;;;;;;;;5037298;28;20052;-71
2022/04/04 15:48:07;;;;;;;12.52;5.80;;;;;;;;;;4967843;28;20057;-71
2022/04/04 15:50:36;;;;;;;7.88;4.03;;;;;;;;;;4970251;28;20118;-70
2022/04/04 15:53:16;;;;;;;8.70;4.10;;;;;;;;;;4970003;28;20077;-71
2022/04/04 15:55:50;;;;;;;8.13;3.63;;;;;;;;;;4971789;28;20053;-71
2022/04/04 15:58:48;;;;;;;7.85;3.10;;;;;;;;;;4970345;28;20051;-71
2022/04/04 16:04:09;;;;;;;6.10;2.97;;;;;;;;;;5011764;28;20071;-71
2022/04/04 16:06:56;;;;;;;5.20;2.83;;;;;;;;;;5042728;28;21719;-71
2022/04/04 16:10:06;;;;;;;5.07;2.90;;;;;;;;;;5064164;28;20040;-70
2022/04/04 16:12:33;;;;;;;7.82;3.50;;;;;;;;;;5045083;28;20484;-70
2022/04/04 16:15:01;;;;;;;11.35;3.45;;;;;;;;;;5040616;28;20115;-70
2022/04/04 16:17:37;;;;;;;8.77;3.25;;;;;;;;;;5039353;28;20050;-70
2022/04/04 16:20:04;;;;;;;8.35;3.30;;;;;;;;;;5044983;28;20052;-70
2022/04/04 16:31:35;;;;;;;10.18;4.47;;;;;;;;;;5032263;28;20126;-70
2022/04/04 16:34:17;;;;;;;9.70;4.80;;;;;;;;;;5045806;28;20067;-70
2022/04/04 16:40:14;;;;;;;24.80;7.88;;;;;;;;;;5047932;28;20048;-70
2022/04/04 16:43:42;;;;;;;17.10;5.80;;;;;;;;;;5032719;28;20040;-71
2022/04/04 16:46:45;;;;;;;17.23;6.78;;;;;;;;;;4970352;28;20051;-70
2022/04/04 16:49:20;;;;;;;19.63;6.95;;;;;;;;;;5034121;28;20122;-70
2022/04/04 16:51:55;;;;;;;16.02;6.50;;;;;;;;;;5049111;28;20037;-70
2022/04/04 16:54:30;;;;;;;24.17;8.80;;;;;;;;;;5051231;28;20045;-70
2022/04/04 16:57:10;;;;;;;19.35;6.97;;;;;;;;;;5043945;28;20063;-70
2022/04/04 16:59:54;;;;;;;19.35;7.10;;;;;;;;;;5049220;28;20041;-70
2022/04/04 17:02:49;;;;;;;20.60;7.15;;;;;;;;;;5044675;28;20444;-71